createdAt,value
2023-01-18T00:00:19.478Z,37.30
2023-01-18T00:02:47.461Z,37.30
2023-01-18T00:05:15.649Z,37.10
2023-01-18T00:07:43.679Z,37.10
2023-01-18T00:10:12.054Z,37.10
2023-01-18T00:12:41.339Z,37.10
2023-01-18T00:15:10.681Z,37.10
2023-01-18T00:17:47.642Z,37.10
2023-01-18T00:20:15.905Z,37.10
2023-01-18T00:22:44.186Z,37.10
2023-01-18T00:25:12.277Z,37.10
2023-01-18T00:27:42.024Z,37.10
2023-01-18T00:30:11.031Z,37.10
2023-01-18T00:32:39.066Z,37.10
2023-01-18T00:35:08.298Z,37.10
2023-01-18T00:37:36.394Z,37.10
2023-01-18T00:40:05.461Z,37.10
2023-01-18T00:42:51.098Z,37.10
2023-01-18T00:45:20.568Z,37.10
2023-01-18T00:47:48.525Z,37.10
2023-01-18T00:50:16.765Z,37.70
2023-01-18T00:52:46.602Z,37.10
2023-01-18T00:55:14.861Z,37.10
2023-01-18T00:57:42.974Z,37.10
2023-01-18T01:00:15.239Z,37.10
2023-01-18T01:02:45.090Z,37.10
2023-01-18T01:05:35.720Z,37.30
2023-01-18T01:08:03.984Z,37.20
2023-01-18T01:10:31.935Z,37.80
2023-01-18T01:13:17.643Z,37.30
2023-01-18T01:16:02.985Z,37.30
2023-01-18T01:18:49.829Z,37.20
2023-01-18T01:21:35.506Z,37.30
2023-01-18T01:24:20.913Z,37.30
2023-01-18T01:26:48.877Z,37.40
2023-01-18T01:29:17.002Z,37.30
2023-01-18T01:31:44.982Z,37.30
2023-01-18T01:34:14.620Z,37.30
2023-01-18T01:36:42.667Z,37.30
2023-01-18T01:39:11.178Z,37.30
2023-01-18T01:41:39.231Z,37.30
2023-01-18T01:44:40.495Z,37.20
2023-01-18T01:47:10.674Z,37.30
2023-01-18T01:49:40.788Z,37.30
2023-01-18T01:52:10.312Z,37.20
2023-01-18T01:54:39.760Z,37.30
2023-01-18T01:57:11.098Z,37.30
2023-01-18T01:59:40.364Z,37.30
2023-01-18T02:02:08.620Z,37.20
2023-01-18T02:04:36.666Z,37.20
2023-01-18T02:07:06.019Z,37.30
2023-01-18T02:09:33.996Z,37.30
2023-01-18T02:12:03.042Z,37.30
2023-01-18T02:14:31.065Z,37.30
2023-01-18T02:17:08.429Z,37.30
2023-01-18T02:20:10.182Z,37.20
2023-01-18T02:22:46.272Z,37.30
2023-01-18T02:25:28.298Z,37.30
2023-01-18T02:28:10.616Z,37.30
2023-01-18T02:30:40.821Z,37.30
2023-01-18T02:33:10.976Z,37.90
2023-01-18T02:35:46.054Z,37.20
2023-01-18T02:38:14.820Z,37.20
2023-01-18T02:40:53.189Z,37.20
2023-01-18T02:43:40.020Z,37.30
2023-01-18T02:46:26.551Z,37.30
2023-01-18T02:48:54.648Z,37.30
2023-01-18T02:51:22.594Z,37.30
2023-01-18T02:53:50.541Z,37.30
2023-01-18T02:56:19.355Z,37.30
2023-01-18T02:58:49.344Z,37.30
2023-01-18T03:01:18.899Z,37.20
2023-01-18T03:03:47.913Z,37.20
2023-01-18T03:06:15.886Z,37.30
2023-01-18T03:08:45.411Z,37.30
2023-01-18T03:11:15.188Z,37.30
2023-01-18T03:14:04.711Z,37.20
2023-01-18T03:16:40.654Z,37.30
2023-01-18T03:19:30.607Z,37.30
2023-01-18T03:21:58.601Z,37.30
2023-01-18T03:24:25.621Z,37.30
2023-01-18T03:26:54.915Z,37.30
2023-01-18T03:29:40.323Z,37.30
2023-01-18T03:32:28.846Z,38.00
2023-01-18T03:34:58.510Z,37.30
2023-01-18T03:37:28.607Z,37.30
2023-01-18T03:39:58.468Z,37.30
2023-01-18T03:42:28.773Z,37.30
2023-01-18T03:44:59.571Z,37.40
2023-01-18T03:47:29.176Z,37.30
2023-01-18T03:49:58.117Z,37.20
2023-01-18T03:52:26.983Z,37.40
2023-01-18T03:54:58.493Z,37.30
2023-01-18T03:57:29.457Z,37.30
2023-01-18T03:59:57.419Z,37.30
2023-01-18T04:02:25.427Z,37.30
2023-01-18T04:04:58.445Z,37.30
2023-01-18T04:07:26.791Z,37.30
2023-01-18T04:09:54.777Z,37.30
2023-01-18T04:12:22.748Z,37.30
2023-01-18T04:14:50.754Z,37.30
2023-01-18T04:17:19.041Z,37.30
2023-01-18T04:19:47.192Z,38.00
2023-01-18T04:22:16.670Z,37.30
2023-01-18T04:24:44.608Z,37.30
2023-01-18T04:27:12.778Z,37.30
2023-01-18T04:29:40.743Z,37.30
2023-01-18T04:32:08.730Z,37.30
2023-01-18T04:34:36.709Z,37.30
2023-01-18T04:37:04.674Z,37.30
2023-01-18T04:39:33.978Z,37.30
2023-01-18T04:42:01.931Z,37.30
2023-01-18T04:44:29.970Z,37.30
2023-01-18T04:46:57.906Z,37.30
2023-01-18T04:49:25.909Z,37.30
2023-01-18T04:51:53.884Z,37.30
2023-01-18T04:54:24.216Z,37.30
2023-01-18T04:56:53.687Z,37.20
2023-01-18T04:59:21.670Z,37.20
2023-01-18T05:01:49.655Z,37.30
2023-01-18T05:04:17.740Z,37.30
2023-01-18T05:06:45.723Z,37.30
2023-01-18T05:09:13.864Z,37.30
2023-01-18T05:11:42.633Z,37.20
2023-01-18T05:14:11.977Z,37.30
2023-01-18T05:16:43.209Z,37.30
2023-01-18T05:19:11.367Z,37.30
2023-01-18T05:21:39.530Z,37.30
2023-01-18T05:24:08.137Z,37.30
2023-01-18T05:26:36.375Z,37.20
2023-01-18T05:29:04.558Z,37.20
2023-01-18T05:31:33.958Z,37.20
2023-01-18T05:34:02.257Z,37.20
2023-01-18T05:36:30.237Z,37.20
2023-01-18T05:38:58.231Z,37.20
2023-01-18T05:41:26.163Z,37.20
2023-01-18T05:43:54.145Z,37.30
2023-01-18T05:46:22.157Z,37.20
2023-01-18T05:48:51.524Z,37.20
2023-01-18T05:51:19.488Z,37.20
2023-01-18T05:53:47.434Z,37.20
2023-01-18T05:56:15.564Z,37.20
2023-01-18T05:58:43.528Z,37.20
2023-01-18T06:01:11.584Z,37.30
2023-01-18T06:03:39.586Z,36.60
2023-01-18T06:06:09.185Z,37.20
2023-01-18T06:08:37.169Z,37.20
2023-01-18T06:11:06.459Z,37.20
2023-01-18T06:13:34.467Z,37.20
2023-01-18T06:16:02.842Z,37.20
2023-01-18T06:18:32.965Z,37.20
2023-01-18T06:21:01.901Z,37.20
2023-01-18T06:23:31.514Z,37.20
2023-01-18T06:25:59.571Z,37.20
2023-01-18T06:28:30.268Z,37.20
2023-01-18T06:30:58.592Z,37.20
2023-01-18T06:33:26.568Z,37.30
2023-01-18T06:35:54.756Z,37.20
2023-01-18T06:38:22.807Z,37.20
2023-01-18T06:40:52.166Z,37.20
2023-01-18T06:43:20.102Z,37.20
2023-01-18T06:45:53.429Z,37.20
2023-01-18T06:48:22.027Z,37.20
2023-01-18T06:50:50.072Z,37.20
2023-01-18T06:53:18.039Z,37.20
2023-01-18T06:55:46.120Z,37.20
2023-01-18T06:58:15.509Z,37.10
2023-01-18T07:00:43.603Z,37.00
2023-01-18T07:03:11.971Z,37.10
2023-01-18T07:05:39.929Z,37.10
2023-01-18T07:08:08.161Z,37.10
2023-01-18T07:10:36.988Z,37.10
2023-01-18T07:13:04.943Z,37.10
2023-01-18T07:15:34.389Z,37.10
2023-01-18T07:21:46.493Z,37.10
2023-01-18T07:24:14.535Z,37.10
2023-01-18T07:26:44.109Z,37.20
2023-01-18T07:29:12.349Z,37.10
2023-01-18T07:31:41.707Z,37.20
2023-01-18T07:34:10.411Z,37.30
2023-01-18T07:36:39.328Z,37.20
2023-01-18T07:39:07.277Z,37.20
2023-01-18T07:41:35.358Z,37.20
2023-01-18T07:44:03.367Z,37.20
2023-01-18T07:46:31.423Z,37.30
2023-01-18T07:49:02.395Z,37.20
2023-01-18T07:51:30.567Z,37.30
2023-01-18T07:53:58.805Z,37.30
2023-01-18T07:56:27.230Z,37.30
2023-01-18T07:58:55.751Z,37.40
2023-01-18T08:01:24.084Z,37.40
2023-01-18T08:03:54.514Z,37.30
2023-01-18T08:06:25.873Z,37.30
2023-01-18T08:08:55.051Z,37.40
2023-01-18T08:11:23.168Z,37.40
2023-01-18T08:13:52.697Z,37.40
2023-01-18T08:16:20.729Z,37.40
2023-01-18T08:18:50.249Z,37.40
2023-01-18T08:21:18.295Z,37.40
2023-01-18T08:23:47.693Z,37.40
2023-01-18T08:26:15.957Z,37.40
2023-01-18T08:28:44.816Z,37.40
2023-01-18T08:31:14.536Z,37.40
2023-01-18T08:33:45.370Z,37.40
2023-01-18T08:36:14.303Z,37.30
2023-01-18T08:38:42.398Z,37.30
2023-01-18T08:41:11.795Z,37.10
2023-01-18T08:43:39.826Z,37.10
2023-01-18T08:46:07.848Z,37.00
2023-01-18T08:48:35.871Z,37.00
2023-01-18T08:51:04.034Z,37.00
2023-01-18T08:53:32.099Z,36.90
2023-01-18T08:56:00.053Z,36.80
2023-01-18T08:58:29.365Z,36.80
2023-01-18T09:00:57.399Z,36.70
2023-01-18T09:03:25.423Z,36.70
2023-01-18T09:05:53.447Z,36.50
2023-01-18T09:08:22.728Z,36.50
2023-01-18T09:10:50.709Z,36.50
2023-01-18T09:13:18.767Z,36.40
2023-01-18T09:15:48.186Z,36.40
2023-01-18T09:18:16.243Z,36.30
2023-01-18T09:20:44.261Z,36.30
2023-01-18T09:23:12.345Z,36.30
2023-01-18T09:25:41.154Z,36.20
2023-01-18T09:28:09.177Z,36.10
2023-01-18T09:30:37.312Z,36.10
2023-01-18T09:33:06.704Z,36.10
2023-01-18T09:35:34.719Z,36.10
2023-01-18T09:38:02.717Z,36.00
2023-01-18T09:40:38.424Z,36.00
2023-01-18T09:43:09.384Z,36.00
2023-01-18T09:45:39.649Z,35.90
2023-01-18T09:48:12.419Z,35.90
2023-01-18T09:50:43.905Z,35.80
2023-01-18T09:53:19.254Z,35.80
2023-01-18T09:55:51.046Z,35.80
2023-01-18T09:58:35.810Z,35.70
2023-01-18T10:01:05.922Z,35.70
2023-01-18T10:03:38.335Z,35.70
2023-01-18T10:06:11.219Z,35.70
2023-01-18T10:08:42.424Z,35.70
2023-01-18T10:11:11.604Z,35.80
2023-01-18T10:13:47.762Z,35.80
2023-01-18T10:16:15.859Z,35.70
2023-01-18T10:18:48.314Z,36.40
2023-01-18T10:21:23.880Z,35.70
2023-01-18T10:24:01.769Z,35.70
2023-01-18T10:26:30.962Z,35.80
2023-01-18T10:29:02.317Z,35.70
2023-01-18T10:31:36.701Z,35.80
2023-01-18T10:34:15.067Z,35.90
2023-01-18T10:36:44.164Z,35.90
2023-01-18T10:39:22.817Z,36.00
2023-01-18T10:41:50.879Z,35.90
2023-01-18T10:44:18.879Z,36.00
2023-01-18T10:46:46.892Z,36.00
2023-01-18T10:49:40.523Z,36.00
2023-01-18T10:52:25.623Z,36.10
2023-01-18T10:54:55.875Z,36.00
2023-01-18T10:57:27.086Z,36.10
2023-01-18T10:59:55.085Z,36.10
2023-01-18T11:02:25.003Z,36.10
2023-01-18T11:04:58.974Z,36.10
2023-01-18T11:07:27.501Z,36.20
2023-01-18T11:09:56.110Z,36.20
2023-01-18T11:12:34.683Z,36.20
2023-01-18T11:15:22.197Z,36.20
2023-01-18T11:18:03.943Z,36.30
2023-01-18T11:20:35.519Z,36.20
2023-01-18T11:23:04.469Z,36.30
2023-01-18T11:25:37.638Z,36.40
2023-01-18T11:28:07.438Z,36.30
2023-01-18T11:30:35.529Z,36.30
2023-01-18T11:33:03.837Z,36.40
2023-01-18T11:35:34.117Z,36.40
2023-01-18T11:38:02.949Z,36.40
2023-01-18T11:40:32.420Z,36.40
2023-01-18T11:43:03.607Z,36.30
2023-01-18T11:45:32.231Z,36.40
2023-01-18T11:48:03.604Z,36.40
2023-01-18T11:50:35.600Z,36.40
2023-01-18T11:53:11.004Z,36.40
2023-01-18T11:55:43.811Z,37.00
2023-01-18T11:58:17.227Z,36.40
2023-01-18T12:00:49.769Z,36.50
2023-01-18T12:03:50.429Z,36.40
2023-01-18T12:06:24.419Z,36.40
2023-01-18T12:09:05.338Z,36.50
2023-01-18T12:11:45.631Z,36.50
2023-01-18T12:14:20.428Z,36.50
2023-01-18T12:16:56.054Z,36.50
2023-01-18T12:20:02.925Z,36.60
2023-01-18T12:22:57.903Z,36.60
2023-01-18T12:25:38.987Z,36.60
2023-01-18T12:28:09.870Z,36.60
2023-01-18T12:30:46.243Z,36.60
2023-01-18T12:33:31.279Z,36.60
2023-01-18T12:36:52.924Z,36.60
2023-01-18T12:39:37.150Z,36.60
2023-01-18T12:42:06.015Z,36.70
2023-01-18T12:45:00.827Z,36.70
2023-01-18T12:47:36.075Z,36.70
2023-01-18T12:50:08.777Z,36.70
2023-01-18T12:52:40.150Z,36.70
2023-01-18T12:55:16.529Z,36.70
2023-01-18T12:57:46.544Z,36.70
2023-01-18T13:00:18.075Z,36.70
2023-01-18T13:02:47.940Z,36.70
2023-01-18T13:05:19.112Z,36.70
2023-01-18T13:07:48.393Z,36.80
2023-01-18T13:10:19.949Z,36.80
2023-01-18T13:12:48.044Z,36.80
2023-01-18T13:15:21.306Z,36.80
2023-01-18T13:17:52.111Z,36.80
2023-01-18T13:20:23.005Z,36.80
2023-01-18T13:22:55.773Z,36.80
2023-01-18T13:25:36.743Z,36.90
2023-01-18T13:28:06.095Z,36.90
2023-01-18T13:30:35.227Z,37.00
2023-01-18T13:33:13.412Z,36.90
2023-01-18T13:35:49.736Z,36.90
2023-01-18T13:38:20.337Z,37.00
2023-01-18T13:40:56.637Z,37.00
2023-01-18T13:43:32.988Z,37.00
2023-01-18T13:46:03.020Z,37.00
2023-01-18T13:48:45.770Z,37.00
2023-01-18T13:51:43.618Z,37.10
2023-01-18T13:54:12.472Z,37.10
2023-01-18T13:56:41.865Z,37.10
2023-01-18T13:59:20.958Z,37.00
2023-01-18T14:01:49.824Z,37.10
2023-01-18T14:04:30.722Z,37.10
2023-01-18T14:06:59.791Z,37.20
2023-01-18T14:09:35.807Z,37.10
2023-01-18T14:12:05.760Z,37.20
2023-01-18T14:14:34.437Z,37.20
2023-01-18T14:17:07.180Z,37.10
2023-01-18T14:20:02.645Z,37.90
2023-01-18T14:22:48.371Z,37.20
2023-01-18T14:25:44.016Z,37.20
2023-01-18T14:28:14.557Z,37.30
2023-01-18T14:30:42.600Z,37.30
2023-01-18T14:33:15.692Z,37.20
2023-01-18T14:35:51.960Z,37.30
2023-01-18T14:38:20.251Z,37.30
2023-01-18T14:40:48.706Z,37.30
2023-01-18T14:43:19.825Z,37.30
2023-01-18T14:45:53.614Z,37.30
2023-01-18T14:48:22.816Z,37.30
2023-01-18T14:50:51.858Z,37.30
2023-01-18T14:53:21.932Z,37.30
2023-01-18T14:56:03.191Z,37.30
2023-01-18T14:58:33.555Z,37.30
2023-01-18T15:01:01.644Z,37.30
2023-01-18T15:03:31.429Z,37.30
2023-01-18T15:06:03.055Z,37.30
2023-01-18T15:08:31.785Z,37.40
2023-01-18T15:11:01.353Z,37.40
2023-01-18T15:13:29.792Z,37.40
2023-01-18T15:16:01.487Z,37.40
2023-01-18T15:18:29.829Z,37.30
2023-01-18T15:20:58.705Z,37.30
2023-01-18T15:23:26.662Z,37.40
2023-01-18T15:25:54.917Z,37.40
2023-01-18T15:28:24.261Z,37.40
2023-01-18T15:30:53.167Z,37.40
2023-01-18T15:33:23.319Z,37.50
2023-01-18T15:35:53.799Z,37.40
2023-01-18T15:38:21.897Z,37.40
2023-01-18T15:40:55.992Z,37.40
2023-01-18T15:43:28.114Z,37.50
2023-01-18T15:45:56.862Z,37.50
2023-01-18T15:48:27.115Z,37.50
2023-01-18T15:50:55.859Z,37.50
2023-01-18T15:53:29.953Z,37.50
2023-01-18T15:55:59.577Z,37.50
2023-01-18T15:58:31.886Z,37.50
2023-01-18T16:01:00.716Z,37.50
2023-01-18T16:03:33.579Z,37.50
2023-01-18T16:06:07.711Z,37.50
2023-01-18T16:08:35.739Z,37.50
2023-01-18T16:11:03.702Z,37.50
2023-01-18T16:13:33.134Z,37.60
2023-01-18T16:16:20.308Z,37.50
2023-01-18T16:18:51.789Z,37.60
2023-01-18T16:21:23.902Z,37.60
2023-01-18T16:23:51.933Z,37.60
2023-01-18T16:26:23.061Z,37.50
2023-01-18T16:28:52.170Z,37.60
2023-01-18T16:31:22.882Z,37.60
2023-01-18T16:33:52.429Z,37.60
2023-01-18T16:36:20.481Z,38.20
2023-01-18T16:38:48.439Z,37.60
2023-01-18T16:41:16.979Z,37.60
2023-01-18T16:43:45.047Z,37.60
2023-01-18T16:46:13.133Z,37.60
2023-01-18T16:48:41.115Z,37.60
2023-01-18T16:51:16.075Z,38.30
2023-01-18T16:53:44.124Z,37.70
2023-01-18T16:56:14.699Z,37.70
2023-01-18T16:58:43.639Z,37.70
2023-01-18T17:01:13.885Z,37.70
2023-01-18T17:03:42.007Z,37.70
2023-01-18T17:06:14.724Z,37.70
2023-01-18T17:08:42.687Z,37.70
2023-01-18T17:11:11.940Z,37.70
2023-01-18T17:13:40.114Z,37.70
2023-01-18T17:16:12.168Z,38.30
2023-01-18T17:18:40.148Z,37.70
2023-01-18T17:21:10.055Z,37.70
2023-01-18T17:23:39.803Z,37.80
2023-01-18T17:26:08.051Z,37.80
2023-01-18T17:28:35.987Z,37.80
2023-01-18T17:31:04.066Z,37.80
2023-01-18T17:33:32.724Z,37.80
2023-01-18T17:36:00.713Z,37.80
2023-01-18T17:41:00.710Z,37.80
2023-01-18T17:43:33.873Z,37.80
2023-01-18T17:46:03.978Z,37.80
2023-01-18T17:48:32.119Z,37.80
2023-01-18T17:51:00.052Z,37.90
2023-01-18T17:53:28.090Z,37.80
2023-01-18T17:55:56.026Z,37.80
2023-01-18T17:58:25.426Z,37.90
2023-01-18T18:00:53.578Z,37.90
2023-01-18T18:03:22.321Z,37.80
2023-01-18T18:05:50.732Z,37.80
2023-01-18T18:08:19.331Z,37.80
2023-01-18T18:10:48.051Z,37.90
2023-01-18T18:13:16.190Z,37.90
2023-01-18T18:15:49.376Z,37.90
2023-01-18T18:18:22.955Z,38.50
2023-01-18T18:20:51.521Z,37.90
2023-01-18T18:23:19.819Z,38.50
2023-01-18T18:25:49.090Z,37.80
2023-01-18T18:28:17.268Z,37.90
2023-01-18T18:30:49.131Z,38.20
2023-01-18T18:33:17.827Z,37.90
2023-01-18T18:35:45.820Z,37.90
2023-01-18T18:38:15.563Z,37.90
2023-01-18T18:40:43.541Z,37.90
2023-01-18T18:43:11.676Z,37.90
2023-01-18T18:45:39.684Z,37.90
2023-01-18T18:48:09.948Z,37.90
2023-01-18T18:50:38.020Z,38.00
2023-01-18T18:53:06.016Z,37.90
2023-01-18T18:55:34.065Z,37.90
2023-01-18T18:58:02.127Z,37.90
2023-01-18T19:00:30.162Z,37.90
2023-01-18T19:03:02.277Z,38.00
2023-01-18T19:05:32.069Z,38.00
2023-01-18T19:08:00.113Z,38.00
2023-01-18T19:10:30.356Z,38.00
2023-01-18T19:12:59.326Z,38.00
2023-01-18T19:15:27.746Z,38.00
2023-01-18T19:17:55.749Z,38.00
2023-01-18T19:20:23.753Z,38.10
2023-01-18T19:22:53.149Z,38.10
2023-01-18T19:25:21.515Z,38.00
2023-01-18T19:27:49.559Z,38.00
2023-01-18T19:30:20.027Z,38.10
2023-01-18T19:32:48.669Z,38.10
2023-01-18T19:35:16.977Z,38.10
2023-01-18T19:37:45.061Z,38.10
2023-01-18T19:40:15.113Z,38.00
2023-01-18T19:42:44.542Z,38.10
2023-01-18T19:45:19.608Z,38.00
2023-01-18T19:47:51.123Z,38.00
2023-01-18T19:50:19.193Z,37.90
2023-01-18T19:52:47.613Z,37.90
2023-01-18T19:55:17.224Z,37.90
2023-01-18T19:57:45.225Z,37.90
2023-01-18T20:00:15.601Z,37.90
2023-01-18T20:02:43.771Z,38.00
2023-01-18T20:05:11.995Z,38.00
2023-01-18T20:07:40.164Z,37.90
2023-01-18T20:10:08.704Z,38.00
2023-01-18T20:12:38.420Z,37.90
2023-01-18T20:15:07.461Z,37.90
2023-01-18T20:17:35.444Z,37.90
2023-01-18T20:20:04.705Z,38.00
2023-01-18T20:22:32.757Z,38.00
2023-01-18T20:25:00.794Z,38.00
2023-01-18T20:27:28.793Z,38.00
2023-01-18T20:29:59.109Z,38.00
2023-01-18T20:32:27.129Z,38.00
2023-01-18T20:34:55.170Z,38.00
2023-01-18T20:37:23.181Z,38.00
2023-01-18T20:39:51.215Z,38.10
2023-01-18T20:42:19.804Z,38.10
2023-01-18T20:44:50.287Z,38.10
2023-01-18T20:47:19.888Z,38.10
2023-01-18T20:49:48.982Z,38.20
2023-01-18T20:52:16.925Z,38.20
2023-01-18T20:54:44.923Z,38.80
2023-01-18T20:57:12.954Z,38.20
2023-01-18T20:59:41.024Z,38.20
2023-01-18T21:02:10.431Z,38.10
2023-01-18T21:04:40.049Z,38.10
2023-01-18T21:07:08.035Z,38.20
2023-01-18T21:09:36.004Z,38.20
2023-01-18T21:12:04.006Z,38.20
2023-01-18T21:14:31.976Z,38.20
2023-01-18T21:17:00.036Z,38.20
2023-01-18T21:19:28.520Z,38.20
2023-01-18T21:21:57.864Z,38.90
2023-01-18T21:24:25.830Z,38.20
2023-01-18T21:26:53.919Z,38.30
2023-01-18T21:29:22.242Z,38.30
2023-01-18T21:31:50.381Z,38.30
2023-01-18T21:34:18.349Z,38.40
2023-01-18T21:36:46.404Z,38.50
2023-01-18T21:39:18.590Z,38.60
2023-01-18T21:42:03.988Z,38.70
2023-01-18T21:44:57.872Z,38.80
2023-01-18T21:47:25.937Z,39.00
2023-01-18T21:50:17.393Z,39.00
2023-01-18T21:53:03.534Z,39.10
2023-01-18T21:55:32.883Z,39.80
2023-01-18T21:58:18.171Z,39.10
2023-01-18T22:00:46.371Z,39.10
2023-01-18T22:03:15.431Z,38.90
2023-01-18T22:05:43.381Z,39.00
2023-01-18T22:08:11.361Z,38.90
2023-01-18T22:10:40.837Z,38.90
2023-01-18T22:13:08.832Z,38.80
2023-01-18T22:15:36.778Z,38.80
2023-01-18T22:18:04.888Z,38.80
2023-01-18T22:20:32.899Z,38.70
2023-01-18T22:23:00.922Z,38.70
2023-01-18T22:25:28.924Z,38.70
2023-01-18T22:27:58.458Z,38.60
2023-01-18T22:30:26.528Z,38.60
2023-01-18T22:32:54.642Z,38.50
2023-01-18T22:35:22.621Z,38.50
2023-01-18T22:37:50.572Z,38.40
2023-01-18T22:40:18.760Z,38.30
2023-01-18T22:42:46.816Z,38.30
2023-01-18T22:45:16.362Z,38.20
2023-01-18T22:47:44.497Z,38.10
2023-01-18T22:50:13.007Z,38.10
2023-01-18T22:52:41.001Z,38.10
2023-01-18T22:55:09.830Z,38.00
2023-01-18T22:57:37.862Z,38.10
2023-01-18T23:00:06.934Z,38.00
2023-01-18T23:02:36.293Z,38.00
2023-01-18T23:05:04.367Z,37.90
2023-01-18T23:07:32.356Z,37.80
2023-01-18T23:10:00.352Z,37.80
2023-01-18T23:12:28.617Z,37.70
2023-01-18T23:15:14.147Z,37.60
2023-01-18T23:17:44.597Z,38.30
2023-01-18T23:20:14.724Z,37.60
2023-01-18T23:22:42.789Z,37.50
2023-01-18T23:25:10.984Z,37.50
2023-01-18T23:27:38.937Z,37.50
2023-01-18T23:30:07.846Z,37.40
2023-01-18T23:32:37.257Z,37.40
2023-01-18T23:35:07.652Z,37.40
2023-01-18T23:37:35.655Z,37.50
2023-01-18T23:40:21.124Z,37.60
2023-01-18T23:43:06.707Z,37.60
2023-01-18T23:45:52.100Z,37.60
2023-01-18T23:48:37.757Z,37.60
2023-01-18T23:51:27.130Z,37.70
2023-01-18T23:54:14.695Z,37.70
2023-01-18T23:56:42.862Z,37.70
2023-01-18T23:59:10.788Z,38.40
